createdAt,value
2023-10-09T00:01:19.052Z,13.98
2023-10-09T00:03:56.598Z,14.07
2023-10-09T00:06:39.066Z,14.13
2023-10-09T00:09:22.506Z,14.18
2023-10-09T00:11:58.492Z,14.20
2023-10-09T00:14:31.988Z,14.25
2023-10-09T00:17:20.981Z,14.38
2023-10-09T00:20:01.355Z,14.50
2023-10-09T00:22:39.383Z,14.43
2023-10-09T00:25:23.087Z,14.40
2023-10-09T00:27:53.698Z,14.38
2023-10-09T00:30:23.450Z,14.32
2023-10-09T00:33:01.371Z,14.34
2023-10-09T00:35:47.990Z,14.38
2023-10-09T00:38:25.279Z,14.48
2023-10-09T00:41:05.571Z,14.46
2023-10-09T00:43:38.613Z,14.46
2023-10-09T00:46:18.071Z,14.56
2023-10-09T00:48:49.706Z,14.60
2023-10-09T00:51:25.977Z,14.64
2023-10-09T00:53:59.408Z,14.68
2023-10-09T00:56:40.457Z,14.71
2023-10-09T00:59:16.069Z,14.73
2023-10-09T01:01:58.432Z,14.68
2023-10-09T01:04:31.148Z,14.66
2023-10-09T01:07:10.582Z,14.68
2023-10-09T01:09:44.774Z,14.78
2023-10-09T01:12:21.374Z,14.87
2023-10-09T01:14:54.246Z,14.90
2023-10-09T01:17:37.869Z,14.95
2023-10-09T01:20:18.248Z,15.00
2023-10-09T01:22:51.982Z,14.97
2023-10-09T01:25:25.506Z,14.98
2023-10-09T01:27:58.319Z,14.97
2023-10-09T01:30:29.485Z,14.98
2023-10-09T01:33:13.273Z,15.05
2023-10-09T01:35:50.347Z,15.08
2023-10-09T01:38:31.759Z,15.06
2023-10-09T01:41:09.501Z,15.08
2023-10-09T01:43:40.215Z,15.15
2023-10-09T01:46:12.226Z,15.26
2023-10-09T01:48:47.844Z,15.25
2023-10-09T01:51:20.741Z,15.26
2023-10-09T01:53:58.198Z,15.30
2023-10-09T01:56:32.326Z,15.39
2023-10-09T01:59:07.099Z,15.43
2023-10-09T02:01:42.432Z,15.37
2023-10-09T02:04:16.071Z,15.37
2023-10-09T02:06:46.923Z,15.42
2023-10-09T02:09:24.288Z,15.44
2023-10-09T02:11:58.546Z,15.46
2023-10-09T02:14:29.175Z,15.48
2023-10-09T02:17:19.095Z,15.56
2023-10-09T02:19:53.730Z,15.57
2023-10-09T02:22:27.606Z,15.56
2023-10-09T02:25:08.964Z,15.60
2023-10-09T02:27:46.838Z,15.64
2023-10-09T02:30:28.509Z,15.62
2023-10-09T02:33:08.404Z,15.55
2023-10-09T02:35:44.105Z,15.54
2023-10-09T02:38:15.974Z,15.53
2023-10-09T02:41:17.382Z,15.54
2023-10-09T02:43:52.049Z,15.53
2023-10-09T02:46:30.649Z,15.57
2023-10-09T02:49:07.677Z,15.49
2023-10-09T02:51:43.339Z,15.44
2023-10-09T02:54:36.238Z,15.35
2023-10-09T02:57:10.163Z,15.32
2023-10-09T02:59:46.474Z,15.28
2023-10-09T03:02:17.243Z,15.36
2023-10-09T03:04:48.033Z,15.29
2023-10-09T03:07:18.668Z,15.27
2023-10-09T03:09:50.028Z,15.12
2023-10-09T03:12:20.901Z,15.08
2023-10-09T03:14:55.998Z,15.12
2023-10-09T03:17:26.607Z,15.19
2023-10-09T03:19:57.173Z,15.20
2023-10-09T03:22:28.177Z,15.25
2023-10-09T03:24:59.368Z,15.32
2023-10-09T03:27:30.538Z,15.20
2023-10-09T03:30:06.641Z,15.11
2023-10-09T03:32:37.255Z,15.08
2023-10-09T03:35:15.624Z,15.12
2023-10-09T03:37:46.157Z,15.19
2023-10-09T03:40:19.297Z,15.20
2023-10-09T03:42:50.002Z,15.25
2023-10-09T03:45:31.282Z,15.30
2023-10-09T03:48:10.727Z,15.30
2023-10-09T03:50:44.675Z,15.45
2023-10-09T03:53:15.395Z,15.44
2023-10-09T03:55:45.904Z,15.50
2023-10-09T03:58:20.315Z,15.52
2023-10-09T04:00:53.721Z,15.46
2023-10-09T04:03:26.267Z,15.57
2023-10-09T04:05:57.545Z,15.56
2023-10-09T04:08:34.766Z,15.68
2023-10-09T04:11:05.800Z,15.79
2023-10-09T04:13:41.567Z,15.83
2023-10-09T04:16:34.924Z,15.80
2023-10-09T04:19:12.901Z,15.76
2023-10-09T04:21:43.206Z,15.63
2023-10-09T04:24:24.184Z,15.59
2023-10-09T04:27:04.091Z,15.54
2023-10-09T04:29:48.286Z,15.51
2023-10-09T04:32:22.011Z,15.48
2023-10-09T04:34:59.171Z,15.49
2023-10-09T04:37:40.664Z,15.53
2023-10-09T04:40:36.396Z,15.54
2023-10-09T04:43:11.029Z,15.55
2023-10-09T04:45:54.160Z,15.55
2023-10-09T04:48:39.565Z,15.54
2023-10-09T04:51:24.197Z,15.54
2023-10-09T04:54:01.842Z,15.55
2023-10-09T04:56:33.728Z,15.54
2023-10-09T04:59:09.581Z,15.55
2023-10-09T05:01:45.341Z,15.55
2023-10-09T05:04:40.827Z,15.54
2023-10-09T05:07:24.163Z,15.52
2023-10-09T05:10:15.920Z,15.49
2023-10-09T05:12:49.103Z,15.53
2023-10-09T05:15:28.328Z,15.52
2023-10-09T05:17:58.019Z,15.55
2023-10-09T05:20:43.601Z,15.55
2023-10-09T05:23:26.494Z,15.54
2023-10-09T05:26:00.429Z,15.54
2023-10-09T05:28:50.123Z,15.49
2023-10-09T05:31:32.856Z,15.54
2023-10-09T05:34:04.242Z,15.50
2023-10-09T05:36:36.893Z,15.50
2023-10-09T05:39:20.151Z,15.47
2023-10-09T05:42:01.251Z,15.52
2023-10-09T05:44:50.211Z,15.55
2023-10-09T05:47:35.976Z,15.59
2023-10-09T05:50:19.069Z,15.58
2023-10-09T05:53:06.513Z,15.59
2023-10-09T05:55:49.614Z,15.61
2023-10-09T05:58:32.545Z,15.60
2023-10-09T06:01:21.482Z,15.62
2023-10-09T06:04:06.181Z,15.60
2023-10-09T06:06:44.510Z,15.68
2023-10-09T06:09:51.625Z,15.66
2023-10-09T06:12:35.741Z,15.63
2023-10-09T06:15:22.683Z,15.60
2023-10-09T06:18:01.525Z,15.63
2023-10-09T06:21:01.448Z,15.70
2023-10-09T06:23:44.172Z,15.65
2023-10-09T06:26:27.857Z,15.65
2023-10-09T06:29:10.541Z,15.60
2023-10-09T06:31:59.001Z,15.63
2023-10-09T06:34:36.934Z,15.70
2023-10-09T06:37:19.151Z,15.66
2023-10-09T06:40:08.093Z,15.69
2023-10-09T06:42:52.696Z,15.72
2023-10-09T06:45:45.305Z,15.77
2023-10-09T06:48:28.985Z,15.78
2023-10-09T06:51:05.337Z,15.80
2023-10-09T06:53:48.289Z,15.75
2023-10-09T06:56:25.252Z,15.77
2023-10-09T06:58:56.637Z,15.78
2023-10-09T07:01:41.449Z,15.80
2023-10-09T07:04:20.571Z,15.82
2023-10-09T07:06:53.270Z,15.77
2023-10-09T07:09:21.355Z,15.84
2023-10-09T07:12:11.298Z,15.88
2023-10-09T07:15:09.163Z,15.84
2023-10-09T07:17:48.941Z,15.72
2023-10-09T07:20:37.639Z,15.69
2023-10-09T07:23:22.553Z,15.74
2023-10-09T07:25:59.882Z,15.77
2023-10-09T07:28:38.524Z,15.80
2023-10-09T07:31:25.610Z,15.83
2023-10-09T07:34:01.150Z,15.84
2023-10-09T07:36:39.560Z,15.88
2023-10-09T07:39:24.045Z,15.95
2023-10-09T07:42:03.377Z,15.89
2023-10-09T07:44:44.158Z,15.95
2023-10-09T07:47:29.661Z,15.96
2023-10-09T07:50:00.772Z,15.92
2023-10-09T07:52:31.379Z,15.96
2023-10-09T07:55:23.905Z,16.00
2023-10-09T07:57:54.583Z,15.96
2023-10-09T08:01:00.388Z,15.93
2023-10-09T08:03:35.440Z,15.97
2023-10-09T08:06:31.463Z,15.98
2023-10-09T08:09:20.161Z,15.91
2023-10-09T08:12:21.470Z,15.89
2023-10-09T08:15:00.560Z,15.88
2023-10-09T08:17:30.584Z,15.93
2023-10-09T08:20:12.818Z,15.84
2023-10-09T08:22:53.607Z,15.85
2023-10-09T08:25:33.451Z,15.94
2023-10-09T08:28:18.289Z,16.05
2023-10-09T08:31:04.632Z,16.03
2023-10-09T08:36:24.407Z,16.05
2023-10-09T08:38:59.640Z,16.02
2023-10-09T08:41:31.490Z,16.13
2023-10-09T08:44:05.149Z,16.07
2023-10-09T08:46:38.454Z,16.08
2023-10-09T08:49:11.354Z,16.10
2023-10-09T08:51:44.780Z,16.10
2023-10-09T08:54:16.448Z,16.13
2023-10-09T08:56:51.319Z,16.15
2023-10-09T08:59:23.281Z,16.16
2023-10-09T09:01:59.805Z,16.14
2023-10-09T09:04:41.092Z,16.12
2023-10-09T09:07:33.144Z,16.06
2023-10-09T09:10:19.103Z,16.18
2023-10-09T09:12:54.721Z,16.20
2023-10-09T09:15:28.312Z,16.26
2023-10-09T09:18:12.263Z,16.19
2023-10-09T09:20:47.291Z,16.23
2023-10-09T09:23:25.239Z,16.22
2023-10-09T09:26:00.525Z,16.24
2023-10-09T09:28:40.383Z,16.26
2023-10-09T09:31:16.350Z,16.23
2023-10-09T09:33:49.741Z,16.18
2023-10-09T09:36:20.942Z,16.15
2023-10-09T09:39:02.748Z,16.18
2023-10-09T09:41:35.178Z,16.10
2023-10-09T09:44:06.928Z,16.14
2023-10-09T09:46:40.224Z,16.09
2023-10-09T09:49:18.263Z,16.05
2023-10-09T09:51:50.097Z,16.09
2023-10-09T09:54:27.743Z,16.11
2023-10-09T09:57:00.550Z,16.25
2023-10-09T09:59:36.767Z,16.20
2023-10-09T10:02:10.780Z,16.15
2023-10-09T10:04:45.709Z,16.18
2023-10-09T10:07:22.676Z,15.95
2023-10-09T10:09:59.156Z,15.88
2023-10-09T10:13:05.774Z,15.89
2023-10-09T10:16:21.590Z,15.89
2023-10-09T10:19:08.481Z,15.74
2023-10-09T10:21:41.333Z,15.69
2023-10-09T10:24:55.664Z,15.69
2023-10-09T10:27:33.081Z,15.71
2023-10-09T10:30:44.777Z,15.80
2023-10-09T10:33:17.828Z,15.90
2023-10-09T10:35:54.200Z,15.92
2023-10-09T10:38:38.260Z,15.89
2023-10-09T10:41:18.203Z,15.78
2023-10-09T10:44:23.995Z,15.81
2023-10-09T10:46:56.023Z,15.89
2023-10-09T10:49:37.883Z,15.93
2023-10-09T10:52:20.294Z,15.98
2023-10-09T10:55:07.045Z,15.97
2023-10-09T10:57:52.961Z,16.02
2023-10-09T11:00:38.540Z,16.04
2023-10-09T11:03:20.685Z,16.05
2023-10-09T11:05:56.884Z,16.06
2023-10-09T11:08:34.084Z,16.03
2023-10-09T11:11:20.894Z,16.12
2023-10-09T11:13:59.103Z,15.98
2023-10-09T11:16:43.441Z,15.92
2023-10-09T11:19:30.456Z,15.88
2023-10-09T11:22:16.998Z,15.91
2023-10-09T11:24:48.378Z,15.93
2023-10-09T11:27:21.876Z,16.01
2023-10-09T11:30:06.999Z,16.05
2023-10-09T11:32:39.924Z,16.04
2023-10-09T11:35:35.850Z,16.08
2023-10-09T11:38:22.671Z,16.08
2023-10-09T11:41:07.820Z,16.09
2023-10-09T11:43:55.779Z,15.98
2023-10-09T11:46:39.498Z,16.01
2023-10-09T11:49:26.790Z,16.02
2023-10-09T11:52:09.942Z,16.06
2023-10-09T11:54:40.961Z,16.07
2023-10-09T11:57:08.560Z,16.08
2023-10-09T11:59:42.696Z,16.02
2023-10-09T12:02:14.908Z,16.00
2023-10-09T12:04:48.304Z,16.02
2023-10-09T12:07:21.962Z,16.03
2023-10-09T12:09:57.571Z,15.98
2023-10-09T12:12:29.276Z,15.90
2023-10-09T12:14:59.766Z,15.80
2023-10-09T12:17:30.529Z,15.76
2023-10-09T12:20:15.844Z,15.81
2023-10-09T12:22:46.476Z,15.89
2023-10-09T12:25:19.340Z,15.90
2023-10-09T12:27:49.895Z,15.79
2023-10-09T12:30:28.046Z,15.84
2023-10-09T12:32:59.153Z,15.96
2023-10-09T12:35:35.835Z,15.96
2023-10-09T12:38:09.973Z,15.92
2023-10-09T12:40:43.604Z,15.86
2023-10-09T12:43:16.830Z,15.84
2023-10-09T12:45:47.521Z,15.83
2023-10-09T12:48:18.577Z,15.86
2023-10-09T12:50:55.575Z,15.86
2023-10-09T12:53:30.952Z,15.81
2023-10-09T12:56:03.042Z,15.83
2023-10-09T12:58:41.027Z,15.84
2023-10-09T13:01:13.605Z,16.03
2023-10-09T13:03:44.372Z,16.01
2023-10-09T13:06:25.562Z,15.87
2023-10-09T13:09:01.130Z,15.81
2023-10-09T13:11:31.812Z,15.82
2023-10-09T13:14:13.120Z,15.72
2023-10-09T13:16:43.865Z,15.63
2023-10-09T13:19:14.826Z,15.77
2023-10-09T13:21:49.833Z,15.72
2023-10-09T13:24:25.769Z,15.68
2023-10-09T13:26:59.580Z,15.71
2023-10-09T13:29:35.231Z,15.78
2023-10-09T13:32:14.853Z,15.76
2023-10-09T13:34:47.921Z,15.73
2023-10-09T13:37:23.473Z,15.73
2023-10-09T13:39:57.848Z,15.74
2023-10-09T13:42:28.839Z,15.73
2023-10-09T13:45:05.968Z,15.75
2023-10-09T13:47:37.288Z,15.78
2023-10-09T13:50:10.986Z,15.90
2023-10-09T13:52:47.165Z,15.80
2023-10-09T13:55:19.335Z,15.87
2023-10-09T13:57:49.915Z,15.79
2023-10-09T14:00:34.900Z,15.74
2023-10-09T14:03:13.450Z,15.80
2023-10-09T14:05:53.252Z,15.84
2023-10-09T14:08:30.351Z,15.89
2023-10-09T14:11:01.594Z,15.87
2023-10-09T14:13:32.538Z,15.76
2023-10-09T14:16:03.610Z,15.80
2023-10-09T14:18:34.436Z,15.74
2023-10-09T14:21:17.559Z,15.81
2023-10-09T14:23:51.328Z,15.84
2023-10-09T14:26:23.531Z,15.87
2023-10-09T14:28:54.469Z,15.81
2023-10-09T14:31:28.381Z,15.79
2023-10-09T14:34:00.326Z,15.78
2023-10-09T14:36:35.072Z,15.83
2023-10-09T14:39:08.652Z,15.90
2023-10-09T14:41:39.201Z,15.91
2023-10-09T14:44:18.019Z,15.91
2023-10-09T14:46:50.664Z,15.85
2023-10-09T14:49:22.884Z,15.84
2023-10-09T14:51:54.784Z,15.80
2023-10-09T14:54:29.048Z,15.77
2023-10-09T14:56:59.852Z,15.75
2023-10-09T14:59:30.560Z,15.80
2023-10-09T15:02:01.334Z,15.83
2023-10-09T15:04:32.841Z,15.80
2023-10-09T15:07:03.382Z,15.82
2023-10-09T15:09:37.943Z,15.79
2023-10-09T15:12:10.294Z,15.77
2023-10-09T15:14:40.953Z,15.68
2023-10-09T15:17:12.395Z,15.77
2023-10-09T15:19:43.353Z,15.75
2023-10-09T15:22:13.605Z,15.67
2023-10-09T15:24:47.261Z,15.64
2023-10-09T15:27:18.070Z,15.59
2023-10-09T15:29:50.651Z,15.57
2023-10-09T15:32:24.166Z,15.58
2023-10-09T15:35:00.246Z,15.62
2023-10-09T15:37:32.013Z,15.66
2023-10-09T15:40:15.694Z,15.59
2023-10-09T15:42:51.586Z,15.50
2023-10-09T15:45:24.152Z,15.59
2023-10-09T15:47:55.300Z,15.63
2023-10-09T15:50:27.427Z,15.64
2023-10-09T15:52:59.803Z,15.52
2023-10-09T15:55:35.289Z,15.53
2023-10-09T15:58:10.045Z,15.69
2023-10-09T16:00:40.874Z,15.65
2023-10-09T16:03:15.364Z,15.60
2023-10-09T16:05:48.359Z,15.55
2023-10-09T16:08:20.784Z,15.54
2023-10-09T16:10:54.090Z,15.46
2023-10-09T16:13:24.748Z,15.48
2023-10-09T16:15:57.705Z,15.43
2023-10-09T16:18:28.826Z,15.46
2023-10-09T16:21:00.617Z,15.50
2023-10-09T16:23:32.437Z,15.46
2023-10-09T16:26:05.743Z,15.41
2023-10-09T16:28:37.675Z,15.39
2023-10-09T16:31:14.754Z,15.43
2023-10-09T16:33:45.598Z,15.47
2023-10-09T16:36:16.989Z,15.50
2023-10-09T16:38:48.107Z,15.51
2023-10-09T16:41:21.792Z,15.54
2023-10-09T16:43:53.851Z,15.63
2023-10-09T16:46:24.888Z,15.68
2023-10-09T16:48:59.016Z,15.72
2023-10-09T16:51:29.613Z,15.74
2023-10-09T16:54:00.351Z,15.80
2023-10-09T16:56:34.927Z,15.80
2023-10-09T16:59:06.619Z,15.88
2023-10-09T17:01:37.723Z,15.77
2023-10-09T17:04:13.371Z,15.82
2023-10-09T17:06:45.184Z,15.76
2023-10-09T17:09:16.068Z,15.76
2023-10-09T17:11:53.373Z,15.74
2023-10-09T17:14:27.678Z,15.78
2023-10-09T17:16:59.064Z,15.79
2023-10-09T17:19:29.848Z,15.83
2023-10-09T17:22:08.183Z,15.89
2023-10-09T17:24:39.978Z,15.86
2023-10-09T17:27:19.301Z,15.86
2023-10-09T17:29:50.020Z,15.79
2023-10-09T17:32:20.697Z,15.88
2023-10-09T17:34:51.269Z,15.92
2023-10-09T17:37:23.588Z,15.91
2023-10-09T17:39:54.068Z,15.86
2023-10-09T17:42:27.285Z,15.90
2023-10-09T17:44:58.120Z,15.96
2023-10-09T17:47:29.230Z,15.93
2023-10-09T17:50:00.159Z,15.91
2023-10-09T17:52:30.530Z,15.93
2023-10-09T17:55:02.297Z,15.96
2023-10-09T17:57:35.521Z,15.98
2023-10-09T18:00:10.329Z,15.98
2023-10-09T18:02:43.917Z,15.97
2023-10-09T18:05:31.721Z,16.01
2023-10-09T18:08:05.461Z,16.14
2023-10-09T18:10:45.922Z,16.13
2023-10-09T18:13:22.185Z,16.18
2023-10-09T18:16:15.189Z,16.22
2023-10-09T18:18:50.903Z,16.25
2023-10-09T18:21:29.266Z,16.25
2023-10-09T18:24:09.833Z,16.27
2023-10-09T18:26:49.324Z,16.32
2023-10-09T18:29:26.367Z,16.38
2023-10-09T18:32:03.468Z,16.37
2023-10-09T18:34:41.024Z,16.34
2023-10-09T18:37:20.342Z,16.33
2023-10-09T18:40:00.308Z,16.38
2023-10-09T18:42:48.878Z,16.38
2023-10-09T18:45:38.025Z,16.37
2023-10-09T18:48:29.507Z,16.41
2023-10-09T18:51:21.931Z,16.39
2023-10-09T18:53:57.608Z,16.45
2023-10-09T18:56:31.015Z,16.44
2023-10-09T18:59:18.160Z,16.37
2023-10-09T19:01:57.791Z,16.45
2023-10-09T19:04:36.753Z,16.43
2023-10-09T19:07:14.499Z,16.42
2023-10-09T19:09:49.673Z,16.43
2023-10-09T19:12:20.301Z,16.41
2023-10-09T19:15:04.425Z,16.51
2023-10-09T19:17:59.039Z,16.50
2023-10-09T19:20:34.821Z,16.55
2023-10-09T19:23:19.518Z,16.58
2023-10-09T19:25:54.553Z,16.63
2023-10-09T19:28:38.667Z,16.64
2023-10-09T19:31:12.220Z,16.68
2023-10-09T19:33:49.236Z,16.67
2023-10-09T19:36:24.987Z,16.70
2023-10-09T19:39:02.217Z,16.62
2023-10-09T19:41:59.505Z,16.64
2023-10-09T19:44:38.695Z,16.58
2023-10-09T19:47:09.873Z,16.68
2023-10-09T19:49:52.564Z,16.64
2023-10-09T19:52:25.838Z,16.62
2023-10-09T19:55:08.733Z,16.63
2023-10-09T19:57:45.844Z,16.65
2023-10-09T20:00:23.347Z,16.61
2023-10-09T20:02:55.459Z,16.59
2023-10-09T20:05:28.994Z,16.61
2023-10-09T20:08:00.714Z,16.60
2023-10-09T20:10:32.107Z,16.68
2023-10-09T20:13:05.316Z,16.70
2023-10-09T20:15:36.571Z,16.69
2023-10-09T20:18:08.499Z,16.70
2023-10-09T20:20:46.893Z,16.72
2023-10-09T20:23:17.946Z,16.78
2023-10-09T20:25:48.754Z,16.75
2023-10-09T20:28:19.521Z,16.74
2023-10-09T20:30:50.441Z,16.75
2023-10-09T20:33:22.022Z,16.77
2023-10-09T20:35:57.560Z,16.82
2023-10-09T20:38:28.631Z,16.83
2023-10-09T20:40:59.518Z,16.79
2023-10-09T20:43:30.825Z,16.77
2023-10-09T20:46:01.651Z,16.78
2023-10-09T20:48:33.039Z,16.78
2023-10-09T20:51:07.333Z,16.78
2023-10-09T20:53:37.926Z,16.71
2023-10-09T20:56:09.832Z,16.76
2023-10-09T20:58:42.877Z,16.81
2023-10-09T21:01:17.084Z,16.78
2023-10-09T21:03:50.618Z,16.75
2023-10-09T21:06:25.365Z,16.76
2023-10-09T21:08:56.721Z,16.79
2023-10-09T21:11:27.357Z,16.85
2023-10-09T21:13:58.005Z,16.87
2023-10-09T21:16:28.606Z,16.85
2023-10-09T21:18:59.284Z,16.91
2023-10-09T21:21:32.856Z,16.89
2023-10-09T21:24:03.500Z,16.92
2023-10-09T21:26:34.205Z,16.88
2023-10-09T21:29:04.783Z,16.90
2023-10-09T21:31:35.767Z,16.96
2023-10-09T21:34:06.490Z,16.86
2023-10-09T21:36:39.676Z,16.87
2023-10-09T21:39:10.917Z,16.86
2023-10-09T21:41:41.641Z,16.83
2023-10-09T21:44:14.979Z,16.88
2023-10-09T21:46:46.683Z,16.86
2023-10-09T21:49:17.387Z,16.79
2023-10-09T21:51:51.508Z,16.84
2023-10-09T21:54:22.126Z,16.90
2023-10-09T21:56:52.807Z,16.87
2023-10-09T21:59:23.366Z,16.82
2023-10-09T22:01:54.399Z,16.88
2023-10-09T22:04:27.049Z,16.88
2023-10-09T22:07:00.237Z,16.90
2023-10-09T22:09:30.824Z,16.90
2023-10-09T22:12:01.444Z,16.89
2023-10-09T22:14:33.139Z,16.89
2023-10-09T22:17:04.876Z,16.93
2023-10-09T22:19:37.666Z,16.94
2023-10-09T22:22:14.174Z,16.87
2023-10-09T22:24:49.859Z,16.89
2023-10-09T22:27:25.289Z,16.97
2023-10-09T22:29:56.694Z,16.92
2023-10-09T22:32:28.840Z,16.88
2023-10-09T22:35:01.913Z,16.83
2023-10-09T22:37:38.663Z,16.78
2023-10-09T22:40:22.485Z,16.82
2023-10-09T22:42:53.517Z,16.82
2023-10-09T22:45:31.866Z,16.82
2023-10-09T22:48:05.003Z,16.83
2023-10-09T22:50:46.597Z,16.81
2023-10-09T22:53:34.313Z,16.80
2023-10-09T22:56:07.787Z,16.82
2023-10-09T22:58:52.468Z,16.84
2023-10-09T23:01:27.974Z,16.83
2023-10-09T23:04:17.124Z,16.84
2023-10-09T23:06:48.352Z,16.84
2023-10-09T23:09:32.387Z,16.86
2023-10-09T23:12:08.794Z,16.84
2023-10-09T23:14:39.438Z,16.83
2023-10-09T23:17:10.080Z,16.78
2023-10-09T23:19:45.700Z,16.83
2023-10-09T23:22:15.713Z,16.87
2023-10-09T23:24:55.038Z,16.86
2023-10-09T23:27:49.086Z,16.90
2023-10-09T23:30:26.551Z,16.89
2023-10-09T23:33:11.298Z,16.88
2023-10-09T23:35:52.425Z,16.89
2023-10-09T23:38:33.300Z,16.88
2023-10-09T23:41:11.272Z,16.85
2023-10-09T23:43:49.778Z,16.82
2023-10-09T23:46:25.172Z,16.84
2023-10-09T23:48:56.663Z,16.83
2023-10-09T23:51:28.370Z,16.85
2023-10-09T23:54:03.080Z,16.81
2023-10-09T23:56:44.129Z,16.78
2023-10-09T23:59:16.505Z,16.78
